Terminal Aerodrome Forecast
Issued by NWS

Home | Current Version | Previous Version | Text Only | Print | Product List | Glossary On
Versions: 1 2 3 4 5 6 7 8 9 10 11 12 13 14 15
709
FTUS43 KICT 251122
TAFCNU
TAF
KCNU 251122Z 2512/2612 19006KT P6SM VCTS SCT030 OVC090CB
      TEMPO 2512/2514 VRB15G30KT 4SM TSRA OVC030CB
     FM251500 19011KT P6SM SCT050 BKN100
     FM260000 18007KT P6SM SCT200=

USA.gov is the U.S. government's official web portal to all federal, state and local government web resources and services.